KEZF

Shannon Airport

Fredericksburg, Virginia, USA
METAR KEZF 211955Z AUTO 15008KT 10SM BKN085 19/08 A3012 RMK AO2 T01900079
Observed Flight Rules
Jan-21 @ 19:55 UTC (28 minutes ago) Visual Flight Rules
Wind Visibility Clouds
150° at 8 knots 10 miles
  • Broken at 8,500' AGL
Temperatures Readings
Current 19°C / 66°F
Dewpoint 8°C / 46°F
Humidity 49%
Altimeter 30.12" Hg
Pressure 1020 hPa
Elevation 26
METAR KEZF 211955Z AUTO 15008KT 10SM BKN085 19/08 A3012 RMK AO2 T01900079
Observed Flight Rules
Jan-21 @ 19:55 UTC
(28 minutes ago)
VFR
Wind Visibility
150° at 8 knots 10 miles
Clouds
  • Broken at 8,500' AGL
Temperature Dewpoint
19°C / 66°F 8°C / 46°F
Humidity Altimeter Pressure
49% 30.12" Hg 1020 hPa